Time;durP1;ratioP1;P1;durP2;ratioP2;P2;SDS_P1;SDS_P2;PMS_P1;PMS_P2;Temp;Humidity;BMP_temperature;BMP_pressure;BME280_temperature;BME280_humidity;BME280_pressure;Samples;Min_cycle;Max_cycle;Signal;HPM_P1;HPM_P2
2022/07/15 00:00:51;;;;;;;0.98;0.47;;;;;;;;;;5097100;28;20333;-82
2022/07/15 00:03:16;;;;;;;0.30;0.20;;;;;;;;;;5105964;28;20085;-82
2022/07/15 00:05:46;;;;;;;0.40;0.32;;;;;;;;;;5109914;28;20031;-83
2022/07/15 00:08:11;;;;;;;3.65;0.52;;;;;;;;;;5101192;28;20107;-83
2022/07/15 00:10:39;;;;;;;0.50;0.30;;;;;;;;;;5107810;28;20107;-83
2022/07/15 00:13:05;;;;;;;0.47;0.30;;;;;;;;;;5095361;28;20024;-83
2022/07/15 00:15:31;;;;;;;2.08;0.75;;;;;;;;;;5091851;28;20020;-83
2022/07/15 00:18:01;;;;;;;1.48;0.38;;;;;;;;;;5097435;28;20046;-82
2022/07/15 00:20:33;;;;;;;0.38;0.32;;;;;;;;;;5094399;28;20035;-82
2022/07/15 00:22:59;;;;;;;0.75;0.50;;;;;;;;;;5100339;28;20032;-82
2022/07/15 00:25:24;;;;;;;0.52;0.35;;;;;;;;;;5100643;28;20467;-82
2022/07/15 00:28:06;;;;;;;0.73;0.73;;;;;;;;;;5098427;28;20114;-83
2022/07/15 00:30:38;;;;;;;1.15;0.60;;;;;;;;;;5091160;28;20546;-82
2022/07/15 00:33:04;;;;;;;0.80;0.77;;;;;;;;;;5098283;28;20119;-80
2022/07/15 00:35:30;;;;;;;0.77;0.65;;;;;;;;;;5093588;28;20031;-80
2022/07/15 00:37:58;;;;;;;0.95;0.50;;;;;;;;;;5076467;28;20422;-80
2022/07/15 00:40:26;;;;;;;3.83;1.02;;;;;;;;;;5096268;28;20038;-81
2022/07/15 00:42:52;;;;;;;0.98;0.65;;;;;;;;;;5098220;27;20027;-80
2022/07/15 00:45:19;;;;;;;2.90;0.45;;;;;;;;;;5097465;28;20111;-81
2022/07/15 00:47:47;;;;;;;1.92;1.00;;;;;;;;;;5104537;28;20024;-81
2022/07/15 00:50:16;;;;;;;2.28;0.63;;;;;;;;;;5083375;28;20031;-83
2022/07/15 00:52:48;;;;;;;0.45;0.20;;;;;;;;;;5096642;28;20448;-81
2022/07/15 00:55:14;;;;;;;0.30;0.30;;;;;;;;;;5094786;28;20024;-82
2022/07/15 00:57:42;;;;;;;0.70;0.38;;;;;;;;;;5106197;28;20028;-82
2022/07/15 01:00:10;;;;;;;0.38;0.32;;;;;;;;;;5087450;28;20053;-83
2022/07/15 01:02:37;;;;;;;1.23;0.50;;;;;;;;;;5091797;28;20034;-81
2022/07/15 01:05:05;;;;;;;1.02;0.80;;;;;;;;;;5093435;28;20055;-81
2022/07/15 01:07:33;;;;;;;2.83;0.38;;;;;;;;;;5094982;28;20490;-82
2022/07/15 01:09:59;;;;;;;1.65;0.82;;;;;;;;;;5075767;28;20035;-80
2022/07/15 01:12:28;;;;;;;0.32;0.22;;;;;;;;;;5080063;28;20424;-80
2022/07/15 01:14:56;;;;;;;0.40;0.40;;;;;;;;;;5101040;28;20027;-81
2022/07/15 01:17:21;;;;;;;1.63;1.50;;;;;;;;;;5091534;28;20032;-81
2022/07/15 01:19:47;;;;;;;0.38;0.38;;;;;;;;;;5106560;28;20097;-81
2022/07/15 01:22:14;;;;;;;3.47;0.40;;;;;;;;;;5097963;28;20909;-81
2022/07/15 01:24:42;;;;;;;0.60;0.43;;;;;;;;;;5108352;28;20036;-83
2022/07/15 01:27:08;;;;;;;0.40;0.40;;;;;;;;;;5097745;28;20046;-82
2022/07/15 01:29:33;;;;;;;0.28;0.28;;;;;;;;;;5093264;28;20421;-82
2022/07/15 01:31:58;;;;;;;3.83;0.35;;;;;;;;;;5094021;28;20421;-82
2022/07/15 01:34:29;;;;;;;3.20;1.55;;;;;;;;;;5096651;28;20016;-81
2022/07/15 01:36:59;;;;;;;0.68;0.63;;;;;;;;;;5095802;28;20032;-82
2022/07/15 01:39:32;;;;;;;0.60;0.47;;;;;;;;;;5072411;28;20028;-82
2022/07/15 01:42:00;;;;;;;0.57;0.32;;;;;;;;;;5096654;28;20066;-83
2022/07/15 01:44:25;;;;;;;3.15;1.00;;;;;;;;;;5097681;28;20032;-83
2022/07/15 01:46:53;;;;;;;0.55;0.50;;;;;;;;;;5090947;28;20027;-83
2022/07/15 01:49:29;;;;;;;0.57;0.55;;;;;;;;;;5082578;28;20590;-82
2022/07/15 01:51:56;;;;;;;1.27;0.65;;;;;;;;;;5103875;28;20106;-83
2022/07/15 01:54:25;;;;;;;2.05;0.60;;;;;;;;;;5089847;28;20111;-83
2022/07/15 01:56:51;;;;;;;1.10;0.40;;;;;;;;;;5090777;28;20494;-83
2022/07/15 01:59:16;;;;;;;0.22;0.22;;;;;;;;;;5102982;28;20020;-83
2022/07/15 02:01:47;;;;;;;1.92;0.77;;;;;;;;;;5087639;28;20016;-84
2022/07/15 02:04:18;;;;;;;0.80;0.45;;;;;;;;;;5100392;28;20076;-83
2022/07/15 02:06:47;;;;;;;4.43;1.10;;;;;;;;;;5096429;28;20076;-84
2022/07/15 02:09:12;;;;;;;1.98;0.52;;;;;;;;;;5097024;28;20297;-83
2022/07/15 02:11:38;;;;;;;2.95;0.55;;;;;;;;;;5093982;28;20020;-82
2022/07/15 02:14:05;;;;;;;0.60;0.50;;;;;;;;;;5105617;28;20115;-83
2022/07/15 02:16:35;;;;;;;0.32;0.32;;;;;;;;;;5092714;28;20433;-86
2022/07/15 02:19:00;;;;;;;0.85;0.45;;;;;;;;;;5094991;28;20035;-84
2022/07/15 02:21:26;;;;;;;0.10;0.10;;;;;;;;;;5099273;28;20031;-84
2022/07/15 02:23:55;;;;;;;1.08;0.80;;;;;;;;;;5101766;28;20058;-85
2022/07/15 02:26:22;;;;;;;0.30;0.30;;;;;;;;;;5097861;28;20059;-86
2022/07/15 02:28:50;;;;;;;6.22;0.60;;;;;;;;;;5108080;28;20077;-86
2022/07/15 02:31:15;;;;;;;0.68;0.68;;;;;;;;;;5105646;28;20038;-86
2022/07/15 02:33:43;;;;;;;1.00;0.38;;;;;;;;;;5109732;28;20431;-85
2022/07/15 02:36:10;;;;;;;0.25;0.25;;;;;;;;;;5100102;28;20075;-87
2022/07/15 02:38:36;;;;;;;1.13;0.40;;;;;;;;;;5109968;28;20073;-87
2022/07/15 02:41:02;;;;;;;0.93;0.30;;;;;;;;;;5093190;28;20040;-86
2022/07/15 02:43:28;;;;;;;0.98;0.60;;;;;;;;;;5104368;28;20073;-88
2022/07/15 02:45:53;;;;;;;0.30;0.30;;;;;;;;;;5103158;28;20036;-88
2022/07/15 02:48:21;;;;;;;0.60;0.60;;;;;;;;;;5106953;28;20035;-88
2022/07/15 02:50:47;;;;;;;0.43;0.40;;;;;;;;;;5109593;28;20024;-86
2022/07/15 02:53:12;;;;;;;1.90;1.13;;;;;;;;;;5106533;28;20953;-88
2022/07/15 02:55:38;;;;;;;0.15;0.10;;;;;;;;;;5108914;28;20020;-85
2022/07/15 02:58:03;;;;;;;0.38;0.32;;;;;;;;;;5107045;28;20111;-85
2022/07/15 03:00:30;;;;;;;1.80;0.47;;;;;;;;;;5110254;28;20037;-87
2022/07/15 03:02:55;;;;;;;0.80;0.50;;;;;;;;;;5101656;28;20111;-87
2022/07/15 03:05:21;;;;;;;0.68;0.30;;;;;;;;;;5097380;28;20165;-86
2022/07/15 03:07:46;;;;;;;1.52;0.50;;;;;;;;;;5098001;28;20098;-87
2022/07/15 03:10:12;;;;;;;0.85;0.35;;;;;;;;;;5103756;28;20115;-86
2022/07/15 03:12:38;;;;;;;1.67;0.63;;;;;;;;;;5099441;28;20031;-88
2022/07/15 03:15:03;;;;;;;0.38;0.35;;;;;;;;;;5106178;28;20062;-86
2022/07/15 03:17:31;;;;;;;1.13;0.70;;;;;;;;;;5104014;28;20027;-85
2022/07/15 03:19:56;;;;;;;0.20;0.20;;;;;;;;;;5108627;28;20036;-87
2022/07/15 03:22:27;;;;;;;0.10;0.10;;;;;;;;;;5114070;28;20089;-85
2022/07/15 03:24:52;;;;;;;1.33;0.77;;;;;;;;;;5118193;28;20027;-90
2022/07/15 03:27:20;;;;;;;0.28;0.28;;;;;;;;;;5107646;28;20456;-88
2022/07/15 03:29:46;;;;;;;2.45;0.20;;;;;;;;;;5098636;28;20441;-87
2022/07/15 03:32:11;;;;;;;0.77;0.40;;;;;;;;;;5078364;28;20054;-87
2022/07/15 03:34:37;;;;;;;2.35;0.90;;;;;;;;;;5105738;28;20097;-82
2022/07/15 03:37:03;;;;;;;1.35;0.60;;;;;;;;;;5079821;28;20130;-84
2022/07/15 03:39:28;;;;;;;0.38;0.28;;;;;;;;;;5105819;28;20100;-86
2022/07/15 03:41:54;;;;;;;1.80;1.15;;;;;;;;;;5110750;28;20026;-85
2022/07/15 03:44:19;;;;;;;0.20;0.10;;;;;;;;;;5097466;28;20039;-86
2022/07/15 03:46:45;;;;;;;1.15;0.77;;;;;;;;;;5108422;28;20676;-85
2022/07/15 03:49:14;;;;;;;1.30;0.60;;;;;;;;;;5096890;28;20050;-85
2022/07/15 03:51:39;;;;;;;1.25;1.15;;;;;;;;;;5096911;28;20016;-85
2022/07/15 03:54:05;;;;;;;0.70;0.47;;;;;;;;;;5101940;28;20030;-84
2022/07/15 03:56:31;;;;;;;0.90;0.52;;;;;;;;;;5104141;28;20123;-85
2022/07/15 03:58:56;;;;;;;0.65;0.40;;;;;;;;;;5096712;28;20038;-86
2022/07/15 04:01:22;;;;;;;3.90;1.23;;;;;;;;;;5102006;28;20036;-82
2022/07/15 04:03:49;;;;;;;1.38;0.40;;;;;;;;;;5096419;28;20043;-86
2022/07/15 04:06:20;;;;;;;0.38;0.38;;;;;;;;;;5093003;28;20118;-84
2022/07/15 04:08:49;;;;;;;1.27;1.00;;;;;;;;;;5102685;28;20066;-89
2022/07/15 04:11:17;;;;;;;0.50;0.50;;;;;;;;;;5105465;28;20072;-88
2022/07/15 04:13:43;;;;;;;2.35;0.60;;;;;;;;;;5098248;28;20506;-87
2022/07/15 04:16:09;;;;;;;2.28;0.93;;;;;;;;;;5103936;28;20036;-85
2022/07/15 04:18:35;;;;;;;0.68;0.60;;;;;;;;;;5094774;28;20543;-87
2022/07/15 04:21:01;;;;;;;0.75;0.55;;;;;;;;;;5096737;28;20036;-84
2022/07/15 04:23:26;;;;;;;0.45;0.20;;;;;;;;;;5105572;28;20031;-87
2022/07/15 04:25:52;;;;;;;0.63;0.30;;;;;;;;;;5098708;28;20016;-83
2022/07/15 04:28:19;;;;;;;0.88;0.85;;;;;;;;;;5104707;28;20119;-87
2022/07/15 04:30:44;;;;;;;3.20;0.80;;;;;;;;;;5101358;28;20306;-85
2022/07/15 04:33:09;;;;;;;3.33;0.88;;;;;;;;;;5099689;28;20038;-88
2022/07/15 04:35:35;;;;;;;0.68;0.50;;;;;;;;;;5104839;28;20027;-86
2022/07/15 04:38:00;;;;;;;1.10;0.98;;;;;;;;;;5097294;28;20027;-87
2022/07/15 04:40:38;;;;;;;0.88;0.63;;;;;;;;;;5108658;28;20024;-87
2022/07/15 04:43:03;;;;;;;10.82;0.90;;;;;;;;;;5098408;28;20170;-86
2022/07/15 04:45:29;;;;;;;1.90;0.77;;;;;;;;;;5105202;28;20056;-87
2022/07/15 04:47:57;;;;;;;1.00;0.82;;;;;;;;;;5097000;28;20042;-81
2022/07/15 04:53:08;;;;;;;0.80;0.65;;;;;;;;;;5101683;28;20122;-87
2022/07/15 04:55:34;;;;;;;0.98;0.88;;;;;;;;;;5109602;28;20444;-85
2022/07/15 04:57:59;;;;;;;0.22;0.22;;;;;;;;;;5103205;28;20111;-83
2022/07/15 05:00:24;;;;;;;1.17;0.50;;;;;;;;;;5102117;28;20031;-86
2022/07/15 05:02:50;;;;;;;1.70;1.25;;;;;;;;;;5102801;28;20020;-87
2022/07/15 05:05:15;;;;;;;1.13;1.02;;;;;;;;;;5111549;28;20103;-85
2022/07/15 05:07:41;;;;;;;0.88;0.55;;;;;;;;;;5100463;28;20016;-87
2022/07/15 05:10:10;;;;;;;0.43;0.43;;;;;;;;;;5102052;28;20038;-86
2022/07/15 05:12:36;;;;;;;0.85;0.68;;;;;;;;;;5104563;28;20035;-84
2022/07/15 05:15:03;;;;;;;1.55;0.80;;;;;;;;;;5106853;28;20083;-89
2022/07/15 05:17:30;;;;;;;0.40;0.40;;;;;;;;;;5102906;28;20035;-88
2022/07/15 05:19:56;;;;;;;0.60;0.60;;;;;;;;;;5109003;28;20106;-86
2022/07/15 05:22:22;;;;;;;0.85;0.50;;;;;;;;;;5092085;28;20111;-87
2022/07/15 05:24:48;;;;;;;2.08;0.70;;;;;;;;;;5093849;28;20020;-85
2022/07/15 05:27:13;;;;;;;2.00;0.80;;;;;;;;;;5093109;28;20059;-86
2022/07/15 05:29:39;;;;;;;1.65;0.70;;;;;;;;;;5099805;28;20034;-85
2022/07/15 05:32:07;;;;;;;2.10;0.73;;;;;;;;;;5097049;28;20032;-85
2022/07/15 05:34:35;;;;;;;1.23;0.35;;;;;;;;;;5096049;28;20038;-85
2022/07/15 05:37:12;;;;;;;0.57;0.57;;;;;;;;;;5097031;28;20733;-88
2022/07/15 05:39:53;;;;;;;0.90;0.68;;;;;;;;;;5104657;28;20024;-85
2022/07/15 05:42:21;;;;;;;1.27;0.77;;;;;;;;;;5092596;28;20325;-87
2022/07/15 05:44:49;;;;;;;1.88;0.47;;;;;;;;;;5100953;28;20406;-84
2022/07/15 05:47:15;;;;;;;1.92;0.90;;;;;;;;;;5100808;28;20024;-84
2022/07/15 05:49:41;;;;;;;1.45;1.30;;;;;;;;;;5095701;28;20039;-87
2022/07/15 05:52:07;;;;;;;2.35;0.57;;;;;;;;;;5101510;28;20032;-86
2022/07/15 05:54:32;;;;;;;1.67;0.85;;;;;;;;;;5107500;28;20020;-85
2022/07/15 05:56:58;;;;;;;3.15;0.77;;;;;;;;;;5098171;28;20052;-86
2022/07/15 05:59:23;;;;;;;1.05;0.60;;;;;;;;;;5092452;28;20036;-85
2022/07/15 06:01:48;;;;;;;0.73;0.40;;;;;;;;;;5100121;28;20027;-88
2022/07/15 06:04:14;;;;;;;0.00;0.00;;;;;;;;;;5094278;28;20020;-88
2022/07/15 06:06:39;;;;;;;0.98;0.88;;;;;;;;;;5099189;28;20042;-89
2022/07/15 06:09:08;;;;;;;2.17;0.40;;;;;;;;;;5085512;28;20042;-88
2022/07/15 06:11:33;;;;;;;3.50;0.55;;;;;;;;;;5105087;28;20024;-85
2022/07/15 06:14:03;;;;;;;0.77;0.55;;;;;;;;;;5092967;28;20484;-87
2022/07/15 06:16:29;;;;;;;1.52;0.45;;;;;;;;;;5102174;28;20024;-87
2022/07/15 06:18:54;;;;;;;2.60;0.50;;;;;;;;;;5102853;28;20023;-87
2022/07/15 06:21:20;;;;;;;1.17;0.70;;;;;;;;;;5100871;28;20056;-87
2022/07/15 06:23:45;;;;;;;0.30;0.20;;;;;;;;;;5096731;28;20397;-88
2022/07/15 06:26:10;;;;;;;2.00;0.70;;;;;;;;;;5100166;28;20020;-87
2022/07/15 06:28:38;;;;;;;3.88;0.80;;;;;;;;;;5101762;28;20032;-89
2022/07/15 06:31:03;;;;;;;0.60;0.38;;;;;;;;;;5100773;28;20031;-88
2022/07/15 06:33:31;;;;;;;0.45;0.45;;;;;;;;;;5103028;28;20043;-86
2022/07/15 06:35:56;;;;;;;1.63;0.60;;;;;;;;;;5096491;28;20032;-88
2022/07/15 06:38:24;;;;;;;0.60;0.45;;;;;;;;;;5096470;28;20035;-87
2022/07/15 06:40:49;;;;;;;2.00;0.57;;;;;;;;;;5101859;28;20039;-87
2022/07/15 06:43:16;;;;;;;0.55;0.35;;;;;;;;;;5104334;28;20024;-88
2022/07/15 06:45:44;;;;;;;4.03;0.50;;;;;;;;;;5096159;28;20095;-87
2022/07/15 06:48:10;;;;;;;0.00;0.00;;;;;;;;;;5100362;28;20016;-86
2022/07/15 06:50:35;;;;;;;0.40;0.40;;;;;;;;;;5097029;28;20456;-86
2022/07/15 06:53:05;;;;;;;0.20;0.20;;;;;;;;;;5103441;28;20039;-85
2022/07/15 06:55:30;;;;;;;0.63;0.30;;;;;;;;;;5096251;28;20028;-83
2022/07/15 06:57:56;;;;;;;0.30;0.30;;;;;;;;;;5099844;28;20104;-85
2022/07/15 07:00:21;;;;;;;3.10;0.75;;;;;;;;;;5096591;28;20512;-86
2022/07/15 07:02:47;;;;;;;4.50;0.30;;;;;;;;;;5082451;28;20023;-85
2022/07/15 07:05:12;;;;;;;0.30;0.30;;;;;;;;;;5113435;28;20030;-83
2022/07/15 07:07:37;;;;;;;1.75;0.43;;;;;;;;;;5104861;28;20030;-84
2022/07/15 07:10:06;;;;;;;2.08;0.77;;;;;;;;;;5091932;28;20442;-87
2022/07/15 07:12:31;;;;;;;0.98;0.43;;;;;;;;;;5107167;28;20125;-83
2022/07/15 07:14:57;;;;;;;2.10;0.47;;;;;;;;;;5097024;28;20046;-85
2022/07/15 07:17:22;;;;;;;0.35;0.15;;;;;;;;;;5104034;28;20333;-87
2022/07/15 07:19:52;;;;;;;0.55;0.10;;;;;;;;;;5103179;28;20035;-87
2022/07/15 07:22:18;;;;;;;8.32;0.93;;;;;;;;;;5096370;28;20016;-87
2022/07/15 07:24:45;;;;;;;2.05;0.30;;;;;;;;;;5099699;28;20031;-86
2022/07/15 07:27:11;;;;;;;0.47;0.43;;;;;;;;;;5095571;28;20111;-85
2022/07/15 07:29:37;;;;;;;0.63;0.22;;;;;;;;;;5105143;28;20051;-87
2022/07/15 07:32:02;;;;;;;3.30;0.15;;;;;;;;;;5097865;28;20047;-87
2022/07/15 07:34:28;;;;;;;0.10;0.10;;;;;;;;;;5105934;28;20100;-87
2022/07/15 07:36:53;;;;;;;1.38;0.22;;;;;;;;;;5105542;28;20027;-88
2022/07/15 07:39:19;;;;;;;0.77;0.10;;;;;;;;;;5083519;28;20021;-87
2022/07/15 07:41:44;;;;;;;2.40;0.65;;;;;;;;;;5108360;28;20023;-88
2022/07/15 07:44:09;;;;;;;1.55;0.40;;;;;;;;;;5102043;28;20352;-88
2022/07/15 07:46:35;;;;;;;0.10;0.10;;;;;;;;;;5096042;28;20024;-87
2022/07/15 07:49:03;;;;;;;0.65;0.35;;;;;;;;;;5094759;28;20061;-84
2022/07/15 07:51:28;;;;;;;7.00;0.65;;;;;;;;;;5108021;28;20115;-85
2022/07/15 07:53:53;;;;;;;0.28;0.20;;;;;;;;;;5102319;28;20110;-85
2022/07/15 07:56:19;;;;;;;0.32;0.30;;;;;;;;;;5103758;28;20504;-84
2022/07/15 07:58:46;;;;;;;0.70;0.52;;;;;;;;;;5104754;28;20107;-86
2022/07/15 08:01:12;;;;;;;0.20;0.20;;;;;;;;;;5102334;28;20027;-85
2022/07/15 08:03:37;;;;;;;3.63;1.00;;;;;;;;;;5106588;28;20462;-86
2022/07/15 08:06:03;;;;;;;0.22;0.10;;;;;;;;;;5097283;28;20089;-87
2022/07/15 08:08:28;;;;;;;0.85;0.65;;;;;;;;;;5098479;28;20028;-86
2022/07/15 08:10:55;;;;;;;0.75;0.43;;;;;;;;;;5101477;28;20024;-88
2022/07/15 08:13:23;;;;;;;0.65;0.65;;;;;;;;;;5096205;28;20032;-86
2022/07/15 08:15:49;;;;;;;1.48;0.30;;;;;;;;;;5106495;28;20019;-88
2022/07/15 08:18:15;;;;;;;2.38;0.47;;;;;;;;;;5099265;28;20031;-86
2022/07/15 08:20:41;;;;;;;1.38;0.38;;;;;;;;;;5095598;28;20028;-86
2022/07/15 08:23:07;;;;;;;0.10;0.10;;;;;;;;;;5094691;28;20024;-85
2022/07/15 08:25:36;;;;;;;1.70;0.88;;;;;;;;;;5096030;28;20028;-85
2022/07/15 08:28:02;;;;;;;1.45;0.40;;;;;;;;;;5104574;28;20039;-85
2022/07/15 08:30:33;;;;;;;3.25;0.73;;;;;;;;;;5106079;28;20020;-81
2022/07/15 08:33:01;;;;;;;0.63;0.40;;;;;;;;;;5098417;28;20103;-84
2022/07/15 08:35:27;;;;;;;0.70;0.47;;;;;;;;;;5090474;28;20028;-84
2022/07/15 08:37:53;;;;;;;0.22;0.20;;;;;;;;;;5100361;28;20027;-85
2022/07/15 08:40:20;;;;;;;1.08;0.55;;;;;;;;;;5112774;28;20032;-82
2022/07/15 08:42:47;;;;;;;0.88;0.35;;;;;;;;;;5096976;28;20031;-81
2022/07/15 08:45:21;;;;;;;1.75;0.10;;;;;;;;;;5094728;28;20366;-85
2022/07/15 08:47:51;;;;;;;0.43;0.43;;;;;;;;;;5106682;28;20031;-85
2022/07/15 08:50:17;;;;;;;0.30;0.25;;;;;;;;;;5099449;28;20035;-84
2022/07/15 08:52:44;;;;;;;0.25;0.25;;;;;;;;;;5095932;28;20084;-84
2022/07/15 08:55:13;;;;;;;1.85;0.85;;;;;;;;;;5096524;28;20076;-84
2022/07/15 08:57:49;;;;;;;0.30;0.22;;;;;;;;;;5094643;28;20043;-85
2022/07/15 09:00:39;;;;;;;0.30;0.20;;;;;;;;;;5093567;28;20098;-84
2022/07/15 09:03:17;;;;;;;0.63;0.50;;;;;;;;;;5088408;28;20036;-83
2022/07/15 09:05:42;;;;;;;1.40;0.93;;;;;;;;;;5093480;28;20149;-88
2022/07/15 09:08:14;;;;;;;0.68;0.50;;;;;;;;;;5090660;28;20168;-85
2022/07/15 09:10:49;;;;;;;0.47;0.40;;;;;;;;;;5095292;28;20130;-85
2022/07/15 09:13:33;;;;;;;1.30;0.30;;;;;;;;;;5096357;28;20039;-84
2022/07/15 09:16:39;;;;;;;3.88;1.08;;;;;;;;;;5107414;28;20088;-85
2022/07/15 09:19:08;;;;;;;1.13;0.40;;;;;;;;;;5098509;28;20062;-86
2022/07/15 09:21:34;;;;;;;1.33;0.70;;;;;;;;;;5100396;28;20102;-84
2022/07/15 09:24:33;;;;;;;0.98;0.52;;;;;;;;;;5093464;28;20092;-82
2022/07/15 09:26:58;;;;;;;1.38;0.52;;;;;;;;;;5091199;28;20461;-86
2022/07/15 09:36:01;;;;;;;0.75;0.30;;;;;;;;;;5084053;28;20097;-83
2022/07/15 09:37:59;;;;;;;2.90;0.38;;;;;;;;;;5091816;28;20107;-82
2022/07/15 09:40:25;;;;;;;0.25;0.25;;;;;;;;;;5085552;28;20051;-83
2022/07/15 09:43:21;;;;;;;0.75;0.30;;;;;;;;;;5095918;28;20501;-85
2022/07/15 09:45:46;;;;;;;0.20;0.10;;;;;;;;;;5114349;28;20035;-86
2022/07/15 09:48:14;;;;;;;1.80;0.98;;;;;;;;;;5110111;28;20089;-87
2022/07/15 09:50:48;;;;;;;0.10;0.10;;;;;;;;;;5094257;28;20020;-87
2022/07/15 09:53:14;;;;;;;0.13;0.13;;;;;;;;;;5095078;28;20028;-85
2022/07/15 09:55:40;;;;;;;0.10;0.10;;;;;;;;;;5092644;28;20028;-85
2022/07/15 09:58:07;;;;;;;0.10;0.10;;;;;;;;;;5093345;28;20039;-86
2022/07/15 10:00:33;;;;;;;0.52;0.30;;;;;;;;;;5093500;28;20024;-86
2022/07/15 10:02:59;;;;;;;0.47;0.43;;;;;;;;;;5093924;28;20062;-84
2022/07/15 10:05:27;;;;;;;0.38;0.38;;;;;;;;;;5092913;28;20066;-86
2022/07/15 10:08:04;;;;;;;6.53;0.52;;;;;;;;;;5088064;28;20080;-88
2022/07/15 10:10:29;;;;;;;0.35;0.20;;;;;;;;;;5065756;28;20040;-88
2022/07/15 10:13:09;;;;;;;0.25;0.20;;;;;;;;;;5084129;28;20035;-85
2022/07/15 10:15:47;;;;;;;0.20;0.20;;;;;;;;;;5077439;28;20043;-90
2022/07/15 10:18:27;;;;;;;0.30;0.30;;;;;;;;;;5094310;28;20024;-87
2022/07/15 10:21:00;;;;;;;1.33;0.45;;;;;;;;;;5096655;28;20020;-88
2022/07/15 10:23:42;;;;;;;1.60;0.17;;;;;;;;;;5097092;28;20360;-86
2022/07/15 10:26:23;;;;;;;1.65;0.88;;;;;;;;;;5074559;28;20035;-91
2022/07/15 10:28:54;;;;;;;0.55;0.55;;;;;;;;;;5095849;28;20020;-85
2022/07/15 10:31:23;;;;;;;0.20;0.20;;;;;;;;;;5094476;28;20048;-88
2022/07/15 10:34:03;;;;;;;1.45;0.63;;;;;;;;;;5094230;28;20288;-89
2022/07/15 10:36:53;;;;;;;0.40;0.25;;;;;;;;;;5095525;28;20024;-89
2022/07/15 10:39:21;;;;;;;0.20;0.20;;;;;;;;;;5093212;28;20424;-88
2022/07/15 10:41:53;;;;;;;0.08;0.08;;;;;;;;;;5097831;28;20024;-90
2022/07/15 10:44:19;;;;;;;0.88;0.63;;;;;;;;;;5099465;28;20024;-89
2022/07/15 10:46:48;;;;;;;2.05;0.90;;;;;;;;;;5099542;28;20112;-92
2022/07/15 10:49:13;;;;;;;0.30;0.30;;;;;;;;;;5099004;28;20484;-89
2022/07/15 10:51:39;;;;;;;0.25;0.20;;;;;;;;;;5100101;28;20054;-91
2022/07/15 10:54:29;;;;;;;0.52;0.52;;;;;;;;;;5100789;28;20032;-90
2022/07/15 10:56:56;;;;;;;0.30;0.08;;;;;;;;;;5099558;28;20024;-91
2022/07/15 10:59:24;;;;;;;0.20;0.20;;;;;;;;;;5100691;28;20028;-91
2022/07/15 11:02:12;;;;;;;0.47;0.40;;;;;;;;;;5099990;28;20020;-89
2022/07/15 11:04:38;;;;;;;0.20;0.20;;;;;;;;;;5102514;28;20445;-87
2022/07/15 11:07:04;;;;;;;0.95;0.57;;;;;;;;;;5100515;28;20039;-88
2022/07/15 11:10:04;;;;;;;0.13;0.10;;;;;;;;;;5100094;28;20034;-87
2022/07/15 11:12:30;;;;;;;0.80;0.38;;;;;;;;;;5057277;28;20088;-91
2022/07/15 11:15:11;;;;;;;1.02;0.43;;;;;;;;;;5099229;28;20024;-92
2022/07/15 11:17:36;;;;;;;0.47;0.30;;;;;;;;;;5092730;28;20032;-90
2022/07/15 11:20:08;;;;;;;1.20;0.43;;;;;;;;;;5098047;28;20077;-88
2022/07/15 11:22:35;;;;;;;0.20;0.20;;;;;;;;;;5093505;28;20035;-85
2022/07/15 11:25:01;;;;;;;0.30;0.30;;;;;;;;;;5082137;28;20051;-88
2022/07/15 11:27:26;;;;;;;0.80;0.30;;;;;;;;;;5096688;28;20365;-89
2022/07/15 11:29:54;;;;;;;0.13;0.10;;;;;;;;;;5091085;28;20035;-90
2022/07/15 11:32:21;;;;;;;0.35;0.15;;;;;;;;;;5098594;28;20354;-89
2022/07/15 11:34:50;;;;;;;0.20;0.17;;;;;;;;;;5100205;28;20043;-89
2022/07/15 11:37:18;;;;;;;0.68;0.52;;;;;;;;;;5099327;28;20373;-87
2022/07/15 11:39:48;;;;;;;0.10;0.10;;;;;;;;;;5097984;28;20103;-89
2022/07/15 11:45:32;;;;;;;0.50;0.32;;;;;;;;;;5096545;28;20086;-89
2022/07/15 11:47:57;;;;;;;0.80;0.40;;;;;;;;;;5094723;28;20031;-88
2022/07/15 11:50:22;;;;;;;0.03;0.03;;;;;;;;;;5086888;28;20028;-86
2022/07/15 11:52:50;;;;;;;0.90;0.45;;;;;;;;;;5075377;28;20048;-90
2022/07/15 11:55:21;;;;;;;0.30;0.20;;;;;;;;;;5094179;28;20422;-86
2022/07/15 11:57:47;;;;;;;0.38;0.30;;;;;;;;;;5097582;28;20381;-88
2022/07/15 12:00:15;;;;;;;0.45;0.45;;;;;;;;;;5094564;28;20020;-88
2022/07/15 12:02:43;;;;;;;0.30;0.13;;;;;;;;;;5088267;28;20020;-89
2022/07/15 12:05:09;;;;;;;1.45;0.70;;;;;;;;;;5092092;28;20027;-87
2022/07/15 12:07:54;;;;;;;0.30;0.30;;;;;;;;;;5083138;28;20357;-86
2022/07/15 12:10:33;;;;;;;1.52;0.50;;;;;;;;;;5092251;28;20061;-88
2022/07/15 12:13:01;;;;;;;0.63;0.13;;;;;;;;;;5096224;28;20495;-87
2022/07/15 12:15:27;;;;;;;0.10;0.10;;;;;;;;;;5084021;28;20373;-86
2022/07/15 12:17:57;;;;;;;0.32;0.20;;;;;;;;;;5087242;28;20495;-88
2022/07/15 12:20:29;;;;;;;1.95;0.77;;;;;;;;;;5091999;28;20055;-86
2022/07/15 12:23:09;;;;;;;0.03;0.03;;;;;;;;;;5091000;28;20036;-85
2022/07/15 12:25:35;;;;;;;0.20;0.20;;;;;;;;;;5088666;28;20051;-83
2022/07/15 12:28:00;;;;;;;0.25;0.17;;;;;;;;;;5094292;28;20441;-82
2022/07/15 12:30:37;;;;;;;1.98;0.65;;;;;;;;;;5092602;28;20081;-84
2022/07/15 12:33:35;;;;;;;0.32;0.30;;;;;;;;;;5095424;28;20089;-85
2022/07/15 12:36:33;;;;;;;0.45;0.30;;;;;;;;;;5071991;28;20044;-86
2022/07/15 12:39:02;;;;;;;1.10;0.47;;;;;;;;;;5071854;28;20480;-85
2022/07/15 12:41:29;;;;;;;0.57;0.10;;;;;;;;;;5082779;28;20035;-87
2022/07/15 12:43:58;;;;;;;0.20;0.20;;;;;;;;;;5088050;28;20060;-84
2022/07/15 12:46:42;;;;;;;0.00;0.00;;;;;;;;;;5096173;28;20054;-86
2022/07/15 12:49:08;;;;;;;0.77;0.17;;;;;;;;;;5075693;28;20051;-87
2022/07/15 12:51:35;;;;;;;0.40;0.10;;;;;;;;;;5095102;28;20542;-85
2022/07/15 12:54:06;;;;;;;0.75;0.25;;;;;;;;;;5091993;28;20032;-84
2022/07/15 12:56:51;;;;;;;0.55;0.30;;;;;;;;;;5075561;28;20016;-86
2022/07/15 12:59:16;;;;;;;0.55;0.05;;;;;;;;;;5088538;28;20023;-85
2022/07/15 13:02:01;;;;;;;2.03;0.22;;;;;;;;;;5095325;28;20034;-87
2022/07/15 13:04:27;;;;;;;0.05;0.03;;;;;;;;;;5094352;28;20020;-85
2022/07/15 13:06:54;;;;;;;0.57;0.30;;;;;;;;;;5094853;28;20324;-87
2022/07/15 13:09:20;;;;;;;0.20;0.10;;;;;;;;;;5093749;28;20028;-86
2022/07/15 13:11:47;;;;;;;0.13;0.10;;;;;;;;;;5093856;28;20115;-86
2022/07/15 13:14:14;;;;;;;0.00;0.00;;;;;;;;;;5093892;28;20070;-85
2022/07/15 13:16:42;;;;;;;0.13;0.10;;;;;;;;;;5094548;28;20425;-85
2022/07/15 13:19:08;;;;;;;0.10;0.10;;;;;;;;;;5094763;28;20107;-86
2022/07/15 13:21:33;;;;;;;0.30;0.30;;;;;;;;;;5094501;28;20058;-86
2022/07/15 13:23:59;;;;;;;0.30;0.28;;;;;;;;;;5093182;28;20106;-85
2022/07/15 13:26:27;;;;;;;0.20;0.20;;;;;;;;;;5094686;28;20024;-87
2022/07/15 13:28:53;;;;;;;0.10;0.10;;;;;;;;;;5093688;28;20054;-85
2022/07/15 13:31:18;;;;;;;0.10;0.10;;;;;;;;;;5093416;28;20051;-87
2022/07/15 13:33:43;;;;;;;0.00;0.00;;;;;;;;;;5094673;28;20024;-87
2022/07/15 13:36:14;;;;;;;0.47;0.10;;;;;;;;;;5092116;28;20054;-86
2022/07/15 13:38:39;;;;;;;0.20;0.17;;;;;;;;;;5094110;28;20422;-87
2022/07/15 13:41:04;;;;;;;0.32;0.32;;;;;;;;;;5093555;28;20038;-87
2022/07/15 13:43:30;;;;;;;0.30;0.30;;;;;;;;;;5107236;28;20427;-85
2022/07/15 13:46:00;;;;;;;0.40;0.40;;;;;;;;;;5113859;28;20031;-87
2022/07/15 13:48:25;;;;;;;0.20;0.10;;;;;;;;;;5115142;28;20019;-87
2022/07/15 13:53:34;;;;;;;0.20;0.20;;;;;;;;;;5106988;28;20039;-87
2022/07/15 13:56:00;;;;;;;0.00;0.00;;;;;;;;;;5092686;28;20036;-87
2022/07/15 13:58:26;;;;;;;0.10;0.10;;;;;;;;;;5093710;28;20031;-87
2022/07/15 14:00:53;;;;;;;0.95;0.20;;;;;;;;;;5094415;28;20073;-83
2022/07/15 14:03:23;;;;;;;0.10;0.10;;;;;;;;;;5094425;28;20024;-84
2022/07/15 14:05:51;;;;;;;0.50;0.25;;;;;;;;;;5094331;28;20024;-87
2022/07/15 14:08:16;;;;;;;3.97;0.65;;;;;;;;;;5094074;28;20028;-85
2022/07/15 14:10:44;;;;;;;1.90;1.15;;;;;;;;;;5093183;28;20035;-87
2022/07/15 14:13:12;;;;;;;0.32;0.28;;;;;;;;;;5092614;28;20024;-80
2022/07/15 14:15:37;;;;;;;0.47;0.30;;;;;;;;;;5087858;28;20028;-81
2022/07/15 14:18:03;;;;;;;0.10;0.10;;;;;;;;;;5096849;28;20032;-85
2022/07/15 14:20:28;;;;;;;0.30;0.20;;;;;;;;;;5097316;28;20035;-85
2022/07/15 14:22:57;;;;;;;0.10;0.10;;;;;;;;;;5096671;28;20043;-85
2022/07/15 14:25:22;;;;;;;0.30;0.30;;;;;;;;;;5097182;28;20118;-85
2022/07/15 14:27:50;;;;;;;0.38;0.38;;;;;;;;;;5096771;28;20153;-83
2022/07/15 14:30:16;;;;;;;0.10;0.10;;;;;;;;;;5096214;28;20020;-86
2022/07/15 14:32:42;;;;;;;0.65;0.50;;;;;;;;;;5097363;28;20433;-85
2022/07/15 14:35:10;;;;;;;1.55;0.35;;;;;;;;;;5096437;28;20036;-86
2022/07/15 14:37:35;;;;;;;1.50;0.50;;;;;;;;;;5097484;28;20095;-85
2022/07/15 14:40:05;;;;;;;1.48;0.60;;;;;;;;;;5096033;28;20115;-83
2022/07/15 14:42:30;;;;;;;0.10;0.10;;;;;;;;;;5097075;28;20118;-84
2022/07/15 14:44:56;;;;;;;0.60;0.22;;;;;;;;;;5088608;28;20047;-84
2022/07/15 14:47:21;;;;;;;0.10;0.10;;;;;;;;;;5097090;28;20038;-85
2022/07/15 14:49:47;;;;;;;0.40;0.10;;;;;;;;;;5096505;28;20472;-84
2022/07/15 14:52:12;;;;;;;0.17;0.17;;;;;;;;;;5097844;28;20103;-83
2022/07/15 14:54:41;;;;;;;0.10;0.10;;;;;;;;;;5096550;28;20486;-84
2022/07/15 14:57:06;;;;;;;0.22;0.22;;;;;;;;;;5096732;28;20024;-84
2022/07/15 14:59:31;;;;;;;0.40;0.30;;;;;;;;;;5096256;28;20038;-85
2022/07/15 15:01:57;;;;;;;0.57;0.10;;;;;;;;;;5097598;28;20016;-84
2022/07/15 15:04:22;;;;;;;0.10;0.10;;;;;;;;;;5096612;28;20019;-85